createdAt,value
2023-05-07T00:00:07.101Z,4.59
2023-05-07T00:02:33.461Z,4.98
2023-05-07T00:04:59.833Z,5.01
2023-05-07T00:07:26.162Z,5.21
2023-05-07T00:09:52.507Z,5.17
2023-05-07T00:12:18.814Z,5.07
2023-05-07T00:14:45.113Z,4.90
2023-05-07T00:17:11.454Z,5.13
2023-05-07T00:19:37.788Z,5.46
2023-05-07T00:22:04.098Z,5.15
2023-05-07T00:24:30.417Z,5.21
2023-05-07T00:26:56.753Z,4.98
2023-05-07T00:29:23.078Z,4.89
2023-05-07T00:31:49.431Z,5.13
2023-05-07T00:34:15.755Z,5.04
2023-05-07T00:36:42.101Z,4.69
2023-05-07T00:39:08.448Z,4.71
2023-05-07T00:41:34.816Z,4.81
2023-05-07T00:44:01.153Z,4.70
2023-05-07T00:46:27.510Z,4.80
2023-05-07T00:48:53.871Z,4.62
2023-05-07T00:51:20.200Z,4.96
2023-05-07T00:53:46.531Z,4.87
2023-05-07T00:56:12.875Z,5.37
2023-05-07T00:58:39.197Z,5.09
2023-05-07T01:01:05.553Z,5.05
2023-05-07T01:03:31.900Z,4.78
2023-05-07T01:05:58.612Z,4.75
2023-05-07T01:08:26.662Z,4.91
2023-05-07T01:10:53.189Z,4.91
2023-05-07T01:13:19.574Z,4.90
2023-05-07T01:15:45.972Z,4.83
2023-05-07T01:18:12.423Z,5.02
2023-05-07T01:20:38.753Z,4.76
2023-05-07T01:23:05.077Z,5.04
2023-05-07T01:25:31.396Z,4.99
2023-05-07T01:27:57.711Z,4.74
2023-05-07T01:30:24.028Z,5.02
2023-05-07T01:32:50.337Z,5.08
2023-05-07T01:35:16.647Z,5.00
2023-05-07T01:37:42.988Z,4.80
2023-05-07T01:40:09.519Z,4.89
2023-05-07T01:42:36.025Z,5.15
2023-05-07T01:45:02.333Z,5.31
2023-05-07T01:47:28.690Z,4.97
2023-05-07T01:49:55.037Z,4.64
2023-05-07T01:52:21.369Z,4.82
2023-05-07T01:54:47.681Z,4.74
2023-05-07T01:57:14.002Z,4.87
2023-05-07T01:59:40.312Z,5.00
2023-05-07T02:02:06.817Z,4.68
2023-05-07T02:04:33.172Z,4.60
2023-05-07T02:06:59.488Z,4.28
2023-05-07T02:09:25.799Z,4.49
2023-05-07T02:11:52.129Z,4.85
2023-05-07T02:14:18.459Z,5.30
2023-05-07T02:16:44.806Z,5.19
2023-05-07T02:19:11.137Z,5.35
2023-05-07T02:21:37.467Z,4.78
2023-05-07T02:24:03.779Z,4.78
2023-05-07T02:26:30.111Z,5.17
2023-05-07T02:28:56.445Z,5.04
2023-05-07T02:31:22.804Z,5.13
2023-05-07T02:33:49.132Z,5.56
2023-05-07T02:36:15.441Z,5.13
2023-05-07T02:38:41.760Z,5.19
2023-05-07T02:41:08.079Z,5.26
2023-05-07T02:43:34.410Z,5.29
2023-05-07T02:46:00.783Z,5.33
2023-05-07T02:48:27.102Z,5.30
2023-05-07T02:50:53.417Z,5.35
2023-05-07T02:53:19.722Z,5.60
2023-05-07T02:55:46.040Z,5.60
2023-05-07T02:58:12.364Z,5.80
2023-05-07T03:00:38.665Z,5.71
2023-05-07T03:03:05.031Z,6.07
2023-05-07T03:05:31.359Z,6.08
2023-05-07T03:07:57.678Z,5.99
2023-05-07T03:10:24.014Z,5.72
2023-05-07T03:12:50.397Z,5.81
2023-05-07T03:15:16.721Z,5.60
2023-05-07T03:17:43.131Z,5.19
2023-05-07T03:20:10.807Z,5.46
2023-05-07T03:22:37.588Z,5.35
2023-05-07T03:25:03.920Z,5.44
2023-05-07T03:27:30.250Z,5.47
2023-05-07T03:29:56.562Z,5.33
2023-05-07T03:32:22.901Z,5.62
2023-05-07T03:34:49.232Z,5.44
2023-05-07T03:37:15.539Z,5.34
2023-05-07T03:39:41.873Z,5.13
2023-05-07T03:42:08.191Z,5.49
2023-05-07T03:44:34.520Z,5.30
2023-05-07T03:47:00.836Z,5.02
2023-05-07T03:49:27.161Z,5.24
2023-05-07T03:51:53.694Z,4.88
2023-05-07T03:54:20.070Z,5.36
2023-05-07T03:56:46.407Z,5.28
2023-05-07T03:59:12.719Z,5.08
2023-05-07T04:01:39.101Z,4.94
2023-05-07T04:04:05.483Z,4.85
2023-05-07T04:06:31.929Z,5.66
2023-05-07T04:08:58.236Z,5.68
2023-05-07T04:11:24.562Z,5.60
2023-05-07T04:13:50.871Z,5.53
2023-05-07T04:16:17.201Z,5.21
2023-05-07T04:18:43.557Z,5.20
2023-05-07T04:21:09.878Z,5.11
2023-05-07T04:23:36.182Z,4.81
2023-05-07T04:26:02.559Z,5.13
2023-05-07T04:28:28.858Z,5.42
2023-05-07T04:30:55.156Z,5.55
2023-05-07T04:33:21.459Z,5.47
2023-05-07T04:35:47.778Z,5.66
2023-05-07T04:38:14.101Z,5.62
2023-05-07T04:40:40.409Z,5.49
2023-05-07T04:43:06.728Z,6.41
2023-05-07T04:45:33.051Z,6.40
2023-05-07T04:47:59.381Z,6.34
2023-05-07T04:50:25.739Z,6.42
2023-05-07T04:52:52.089Z,6.51
2023-05-07T04:55:18.419Z,7.10
2023-05-07T04:57:44.804Z,6.76
2023-05-07T05:00:11.224Z,6.35
2023-05-07T05:02:37.687Z,6.53
2023-05-07T05:05:04.030Z,6.65
2023-05-07T05:07:30.337Z,6.60
2023-05-07T05:09:56.672Z,6.50
2023-05-07T05:12:22.986Z,6.82
2023-05-07T05:14:49.284Z,6.77
2023-05-07T05:17:15.603Z,6.65
2023-05-07T05:19:41.917Z,6.93
2023-05-07T05:22:08.260Z,6.64
2023-05-07T05:24:34.562Z,6.56
2023-05-07T05:27:00.879Z,6.41
2023-05-07T05:29:27.283Z,6.34
2023-05-07T05:31:53.641Z,6.15
2023-05-07T05:34:20.036Z,6.26
2023-05-07T05:36:46.345Z,6.09
2023-05-07T05:39:12.670Z,5.88
2023-05-07T05:41:38.984Z,5.77
2023-05-07T05:44:05.302Z,5.68
2023-05-07T05:46:31.666Z,5.37
2023-05-07T05:48:58.060Z,5.31
2023-05-07T05:51:24.399Z,5.06
2023-05-07T05:53:50.713Z,5.33
2023-05-07T05:56:17.037Z,5.45
2023-05-07T05:58:43.388Z,5.24
2023-05-07T06:01:09.722Z,4.98
2023-05-07T06:03:36.028Z,4.79
2023-05-07T06:06:02.322Z,4.80
2023-05-07T06:08:28.651Z,4.66
2023-05-07T06:10:54.966Z,4.80
2023-05-07T06:13:21.358Z,5.14
2023-05-07T06:15:47.742Z,5.16
2023-05-07T06:18:14.100Z,5.07
2023-05-07T06:20:40.443Z,5.10
2023-05-07T06:23:06.762Z,5.10
2023-05-07T06:25:33.078Z,4.90
2023-05-07T06:27:59.411Z,5.05
2023-05-07T06:30:25.739Z,5.00
2023-05-07T06:32:52.086Z,4.62
2023-05-07T06:35:18.442Z,4.59
2023-05-07T06:37:44.764Z,4.91
2023-05-07T06:40:11.356Z,4.67
2023-05-07T06:42:37.864Z,4.55
2023-05-07T06:45:04.192Z,4.63
2023-05-07T06:47:30.511Z,4.75
2023-05-07T06:49:56.864Z,4.57
2023-05-07T06:52:23.190Z,4.66
2023-05-07T06:54:49.511Z,4.57
2023-05-07T06:57:15.823Z,4.34
2023-05-07T06:59:43.155Z,4.24
2023-05-07T07:02:09.483Z,3.87
2023-05-07T07:04:35.850Z,4.02
2023-05-07T07:07:02.223Z,3.83
2023-05-07T07:09:28.532Z,4.04
2023-05-07T07:11:54.868Z,3.92
2023-05-07T07:14:21.202Z,3.77
2023-05-07T07:16:47.525Z,4.12
2023-05-07T07:19:13.845Z,3.93
2023-05-07T07:21:40.164Z,3.89
2023-05-07T07:24:06.488Z,3.90
2023-05-07T07:26:32.811Z,3.96
2023-05-07T07:28:59.135Z,3.78
2023-05-07T07:31:25.562Z,3.74
2023-05-07T07:33:53.104Z,3.60
2023-05-07T07:36:19.681Z,3.52
2023-05-07T07:38:45.996Z,3.59
2023-05-07T07:41:12.337Z,3.74
2023-05-07T07:43:38.711Z,3.76
2023-05-07T07:46:05.045Z,3.97
2023-05-07T07:48:31.374Z,4.25
2023-05-07T07:50:57.722Z,4.04
2023-05-07T07:53:24.049Z,4.14
2023-05-07T07:55:50.361Z,3.70
2023-05-07T07:58:16.667Z,3.71
2023-05-07T08:00:43.001Z,4.00
2023-05-07T08:03:09.601Z,3.83
2023-05-07T08:05:36.079Z,3.69
2023-05-07T08:08:02.399Z,3.65
2023-05-07T08:10:28.747Z,3.59
2023-05-07T08:12:55.129Z,3.61
2023-05-07T08:15:21.464Z,3.76
2023-05-07T08:17:47.877Z,4.04
2023-05-07T08:20:14.397Z,3.77
2023-05-07T08:22:40.845Z,3.77
2023-05-07T08:25:07.184Z,4.00
2023-05-07T08:27:33.486Z,4.31
2023-05-07T08:29:59.845Z,4.11
2023-05-07T08:32:26.203Z,3.90
2023-05-07T08:34:52.534Z,3.98
2023-05-07T08:37:18.862Z,4.15
2023-05-07T08:39:45.177Z,4.26
2023-05-07T08:42:11.484Z,4.30
2023-05-07T08:44:37.797Z,4.03
2023-05-07T08:47:04.134Z,4.41
2023-05-07T08:49:30.474Z,4.39
2023-05-07T08:51:56.813Z,4.81
2023-05-07T08:54:23.141Z,4.62
2023-05-07T08:56:49.481Z,4.58
2023-05-07T08:59:15.803Z,4.56
2023-05-07T09:01:42.136Z,4.87
2023-05-07T09:04:08.558Z,4.80
2023-05-07T09:06:34.894Z,4.73
2023-05-07T09:09:01.207Z,4.94
2023-05-07T09:11:27.537Z,4.68
2023-05-07T09:13:53.833Z,4.65
2023-05-07T09:16:20.170Z,4.22
2023-05-07T09:18:46.524Z,4.27
2023-05-07T09:21:12.843Z,3.91
2023-05-07T09:23:39.156Z,3.80
2023-05-07T09:26:05.947Z,3.74
2023-05-07T09:28:34.274Z,3.80
2023-05-07T09:31:00.725Z,3.83
2023-05-07T09:33:27.059Z,3.86
2023-05-07T09:35:53.364Z,3.63
2023-05-07T09:38:19.793Z,3.75
2023-05-07T09:40:46.119Z,3.57
2023-05-07T09:43:12.450Z,4.07
2023-05-07T09:45:38.796Z,3.94
2023-05-07T09:48:05.150Z,3.87
2023-05-07T09:50:31.495Z,3.81
2023-05-07T09:52:57.827Z,3.82
2023-05-07T09:55:24.138Z,3.93
2023-05-07T09:57:50.451Z,3.85
2023-05-07T10:00:16.876Z,3.87
2023-05-07T10:02:43.286Z,3.84
2023-05-07T10:05:09.762Z,3.77
2023-05-07T10:07:36.180Z,3.77
2023-05-07T10:10:02.526Z,3.96
2023-05-07T10:12:28.856Z,3.67
2023-05-07T10:14:55.163Z,3.75
2023-05-07T10:17:21.557Z,3.74
2023-05-07T10:19:47.941Z,3.48
2023-05-07T10:22:14.247Z,3.77
2023-05-07T10:24:40.566Z,3.74
2023-05-07T10:27:06.877Z,3.80
2023-05-07T10:29:33.183Z,3.60
2023-05-07T10:31:59.528Z,3.83
2023-05-07T10:34:25.855Z,3.60
2023-05-07T10:36:52.177Z,3.67
2023-05-07T10:39:18.490Z,3.62
2023-05-07T10:41:44.816Z,3.71
2023-05-07T10:44:11.121Z,3.40
2023-05-07T10:46:37.483Z,3.52
2023-05-07T10:49:03.841Z,3.47
2023-05-07T10:51:30.190Z,3.40
2023-05-07T10:53:56.514Z,3.76
2023-05-07T10:56:22.817Z,3.83
2023-05-07T10:58:49.152Z,3.99
2023-05-07T11:01:15.533Z,3.79
2023-05-07T11:03:41.894Z,3.61
2023-05-07T11:06:08.265Z,3.55
2023-05-07T11:08:34.581Z,3.82
2023-05-07T11:11:00.897Z,3.64
2023-05-07T11:13:27.374Z,3.86
2023-05-07T11:15:53.729Z,3.87
2023-05-07T11:18:20.057Z,4.01
2023-05-07T11:20:46.360Z,4.02
2023-05-07T11:23:12.752Z,3.93
2023-05-07T11:25:39.058Z,4.05
2023-05-07T11:28:05.371Z,3.93
2023-05-07T11:30:31.715Z,4.91
2023-05-07T11:32:58.103Z,4.83
2023-05-07T11:35:24.460Z,4.03
2023-05-07T11:37:50.767Z,3.33
2023-05-07T11:40:17.083Z,2.31
2023-05-07T11:42:43.377Z,2.07
2023-05-07T11:45:09.947Z,2.00
2023-05-07T11:47:36.429Z,1.81
2023-05-07T11:50:02.867Z,1.76
2023-05-07T11:52:29.253Z,1.72
2023-05-07T11:54:55.573Z,1.51
2023-05-07T11:57:21.897Z,1.45
2023-05-07T11:59:48.201Z,1.34
2023-05-07T12:02:14.563Z,1.24
2023-05-07T12:04:40.987Z,1.25
2023-05-07T12:07:07.325Z,1.38
2023-05-07T12:09:33.653Z,1.36
2023-05-07T12:11:59.964Z,1.29
2023-05-07T12:14:26.271Z,1.40
2023-05-07T12:16:52.616Z,1.35
2023-05-07T12:19:19.033Z,1.36
2023-05-07T12:21:45.368Z,1.48
2023-05-07T12:24:11.669Z,1.59
2023-05-07T12:26:37.991Z,1.76
2023-05-07T12:29:04.297Z,1.75
2023-05-07T12:31:30.673Z,1.71
2023-05-07T12:33:57.023Z,1.74
2023-05-07T12:36:23.357Z,1.80
2023-05-07T12:38:49.662Z,1.83
2023-05-07T12:41:15.991Z,2.01
2023-05-07T12:43:42.326Z,1.84
2023-05-07T12:46:09.092Z,1.78
2023-05-07T12:48:35.862Z,1.76
2023-05-07T12:51:02.182Z,1.63
2023-05-07T12:53:28.483Z,1.73
2023-05-07T12:55:54.797Z,1.62
2023-05-07T12:58:21.121Z,1.47
2023-05-07T13:00:47.444Z,1.53
2023-05-07T13:03:13.852Z,1.62
2023-05-07T13:05:40.246Z,1.49
2023-05-07T13:08:06.554Z,1.87
2023-05-07T13:10:32.868Z,4.90
2023-05-07T13:12:59.256Z,5.45
2023-05-07T13:15:25.636Z,5.30
2023-05-07T13:17:52.079Z,4.59
2023-05-07T13:20:18.468Z,4.72
2023-05-07T13:22:44.828Z,4.84
2023-05-07T13:25:11.414Z,4.66
2023-05-07T13:27:38.021Z,4.99
2023-05-07T13:30:04.422Z,4.60
2023-05-07T13:32:30.740Z,4.80
2023-05-07T13:34:57.097Z,4.90
2023-05-07T13:37:23.434Z,4.81
2023-05-07T13:39:49.739Z,4.93
2023-05-07T13:42:16.066Z,4.62
2023-05-07T13:44:42.381Z,4.67
2023-05-07T13:47:08.759Z,4.46
2023-05-07T13:49:35.108Z,4.53
2023-05-07T13:52:01.426Z,4.65
2023-05-07T13:54:27.765Z,4.90
2023-05-07T13:56:54.086Z,4.43
2023-05-07T13:59:20.403Z,4.11
2023-05-07T14:01:46.713Z,4.52
2023-05-07T14:04:13.069Z,4.69
2023-05-07T14:06:39.412Z,4.39
2023-05-07T14:09:05.773Z,4.27
2023-05-07T14:11:33.855Z,4.02
2023-05-07T14:14:01.083Z,4.11
2023-05-07T14:16:27.485Z,3.78
2023-05-07T14:18:57.942Z,3.73
2023-05-07T14:21:24.733Z,3.59
2023-05-07T14:23:51.048Z,3.57
2023-05-07T14:26:17.402Z,3.54
2023-05-07T14:28:43.750Z,3.98
2023-05-07T14:31:10.157Z,3.78
2023-05-07T14:33:36.497Z,4.03
2023-05-07T14:36:02.811Z,4.11
2023-05-07T14:38:29.112Z,3.85
2023-05-07T14:40:55.485Z,4.05
2023-05-07T14:43:22.213Z,4.10
2023-05-07T14:45:48.543Z,3.94
2023-05-07T14:48:14.893Z,3.63
2023-05-07T14:50:41.193Z,3.59
2023-05-07T14:53:07.516Z,3.58
2023-05-07T14:55:35.400Z,3.35
2023-05-07T14:58:01.882Z,3.30
2023-05-07T15:00:28.241Z,3.39
2023-05-07T15:02:54.770Z,3.52
2023-05-07T15:05:21.225Z,3.37
2023-05-07T15:07:47.588Z,3.40
2023-05-07T15:10:13.901Z,3.43
2023-05-07T15:12:40.254Z,3.21
2023-05-07T15:15:06.603Z,3.17
2023-05-07T15:17:32.952Z,3.35
2023-05-07T15:19:59.302Z,3.27
2023-05-07T15:22:25.630Z,2.78
2023-05-07T15:24:51.993Z,2.87
2023-05-07T15:27:18.327Z,3.06
2023-05-07T15:29:44.666Z,2.88
2023-05-07T15:32:11.077Z,2.70
2023-05-07T15:34:37.488Z,2.74
2023-05-07T15:37:03.804Z,2.88
2023-05-07T15:39:30.137Z,2.51
2023-05-07T15:41:56.472Z,2.73
2023-05-07T15:44:22.790Z,2.89
2023-05-07T15:46:49.104Z,2.72
2023-05-07T15:49:15.442Z,2.52
2023-05-07T15:51:41.766Z,2.39
2023-05-07T15:54:08.110Z,2.23
2023-05-07T15:56:34.456Z,2.18
2023-05-07T15:59:00.808Z,2.16
2023-05-07T16:01:27.150Z,2.15
2023-05-07T16:03:53.599Z,2.02
2023-05-07T16:06:19.966Z,2.04
2023-05-07T16:08:46.304Z,1.98
2023-05-07T16:11:12.636Z,1.90
2023-05-07T16:13:38.969Z,2.22
2023-05-07T16:16:05.269Z,2.27
2023-05-07T16:18:31.601Z,2.21
2023-05-07T16:20:57.952Z,2.36
2023-05-07T16:23:24.263Z,2.35
2023-05-07T16:25:50.589Z,2.20
2023-05-07T16:28:16.956Z,2.09
2023-05-07T16:30:43.303Z,1.99
2023-05-07T16:33:09.621Z,2.13
2023-05-07T16:35:35.938Z,1.95
2023-05-07T16:38:02.262Z,2.16
2023-05-07T16:40:28.577Z,2.01
2023-05-07T16:42:55.662Z,1.90
2023-05-07T16:45:22.055Z,1.65
2023-05-07T16:47:48.392Z,1.56
2023-05-07T16:50:14.762Z,1.72
2023-05-07T16:52:41.101Z,1.60
2023-05-07T16:55:07.440Z,1.77
2023-05-07T16:57:33.749Z,1.81
2023-05-07T17:00:00.577Z,1.66
2023-05-07T17:02:27.219Z,1.88
2023-05-07T17:04:53.620Z,1.78
2023-05-07T17:07:19.942Z,1.97
2023-05-07T17:09:46.261Z,1.79
2023-05-07T17:12:12.564Z,1.83
2023-05-07T17:14:38.866Z,2.21
2023-05-07T17:17:05.180Z,1.96
2023-05-07T17:19:31.516Z,2.23
2023-05-07T17:21:57.825Z,2.35
2023-05-07T17:24:24.122Z,2.27
2023-05-07T17:26:50.457Z,2.40
2023-05-07T17:29:16.764Z,2.69
2023-05-07T17:31:43.136Z,2.61
2023-05-07T17:34:09.481Z,2.59
2023-05-07T17:36:35.777Z,2.83
2023-05-07T17:39:02.080Z,2.63
2023-05-07T17:41:28.385Z,2.23
2023-05-07T17:43:54.682Z,2.37
2023-05-07T17:46:21.214Z,2.40
2023-05-07T17:48:47.619Z,2.42
2023-05-07T17:51:13.939Z,2.35
2023-05-07T17:53:40.262Z,2.34
2023-05-07T17:56:06.597Z,2.15
2023-05-07T17:58:35.001Z,2.01
2023-05-07T18:01:04.900Z,2.20
2023-05-07T18:03:31.372Z,2.21
2023-05-07T18:05:57.714Z,2.38
2023-05-07T18:08:24.017Z,2.23
2023-05-07T18:10:50.324Z,2.20
2023-05-07T18:13:16.686Z,2.31
2023-05-07T18:15:43.053Z,2.77
2023-05-07T18:18:09.451Z,5.72
2023-05-07T18:20:35.798Z,4.83
2023-05-07T18:23:02.160Z,2.27
2023-05-07T18:25:28.488Z,1.90
2023-05-07T18:27:54.788Z,1.84
2023-05-07T18:30:22.237Z,2.03
2023-05-07T18:32:48.612Z,1.89
2023-05-07T18:35:14.989Z,1.91
2023-05-07T18:37:41.317Z,2.08
2023-05-07T18:40:07.622Z,2.00
2023-05-07T18:42:36.213Z,2.02
2023-05-07T18:45:03.349Z,2.06
2023-05-07T18:47:29.673Z,1.98
2023-05-07T18:49:56.019Z,2.04
2023-05-07T18:52:22.353Z,2.25
2023-05-07T18:54:48.683Z,1.82
2023-05-07T18:57:15.001Z,1.93
2023-05-07T18:59:41.318Z,1.86
2023-05-07T19:02:07.625Z,1.84
2023-05-07T19:04:34.046Z,1.91
2023-05-07T19:07:00.423Z,1.95
2023-05-07T19:09:26.748Z,2.15
2023-05-07T19:11:53.065Z,2.26
2023-05-07T19:14:19.399Z,2.30
2023-05-07T19:16:45.748Z,2.26
2023-05-07T19:19:12.071Z,2.47
2023-05-07T19:21:38.421Z,2.61
2023-05-07T19:24:04.740Z,2.66
2023-05-07T19:26:31.054Z,2.58
2023-05-07T19:29:12.350Z,2.63
2023-05-07T19:31:43.651Z,2.57
2023-05-07T19:34:10.002Z,2.47
2023-05-07T19:36:36.309Z,2.21
2023-05-07T19:39:02.635Z,2.58
2023-05-07T19:41:28.954Z,2.62
2023-05-07T19:43:55.317Z,2.39
2023-05-07T19:46:21.767Z,2.60
2023-05-07T19:48:48.277Z,2.54
2023-05-07T19:51:14.576Z,2.46
2023-05-07T19:53:40.896Z,2.58
2023-05-07T19:56:07.227Z,2.36
2023-05-07T19:58:33.527Z,2.43
2023-05-07T20:00:59.848Z,2.22
2023-05-07T20:03:26.296Z,2.25
2023-05-07T20:05:52.671Z,2.24
2023-05-07T20:08:18.997Z,2.24
2023-05-07T20:10:45.322Z,2.40
2023-05-07T20:13:11.694Z,2.29
2023-05-07T20:15:38.048Z,2.37
2023-05-07T20:18:04.415Z,2.34
2023-05-07T20:20:30.757Z,2.42
2023-05-07T20:22:57.062Z,2.50
2023-05-07T20:25:23.370Z,2.39
2023-05-07T20:27:49.694Z,2.35
2023-05-07T20:30:16.187Z,2.44
2023-05-07T20:32:42.582Z,2.21
2023-05-07T20:35:08.921Z,2.16
2023-05-07T20:37:35.311Z,2.30
2023-05-07T20:40:01.646Z,2.21
2023-05-07T20:42:27.957Z,2.39
2023-05-07T20:44:54.262Z,2.12
2023-05-07T20:47:20.583Z,2.32
2023-05-07T20:49:46.916Z,2.36
2023-05-07T20:52:13.220Z,2.54
2023-05-07T20:54:39.521Z,2.42
2023-05-07T20:57:05.824Z,2.62
2023-05-07T20:59:32.170Z,2.45
2023-05-07T21:01:58.491Z,2.64
2023-05-07T21:04:24.872Z,2.42
2023-05-07T21:06:51.229Z,2.60
2023-05-07T21:09:17.545Z,2.56
2023-05-07T21:11:43.880Z,2.61
2023-05-07T21:14:10.205Z,2.39
2023-05-07T21:16:36.584Z,2.53
2023-05-07T21:19:02.945Z,2.70
2023-05-07T21:21:29.287Z,2.66
2023-05-07T21:23:55.601Z,2.86
2023-05-07T21:26:21.911Z,2.70
2023-05-07T21:28:48.238Z,2.79
2023-05-07T21:31:14.570Z,2.42
2023-05-07T21:33:40.941Z,2.63
2023-05-07T21:36:07.246Z,2.79
2023-05-07T21:38:33.565Z,2.83
2023-05-07T21:40:59.886Z,2.67
2023-05-07T21:43:26.207Z,2.85
2023-05-07T21:45:52.692Z,2.72
2023-05-07T21:48:19.023Z,2.73
2023-05-07T21:50:45.325Z,2.80
2023-05-07T21:53:11.643Z,2.82
2023-05-07T21:55:37.944Z,2.77
2023-05-07T21:58:05.924Z,2.99
2023-05-07T22:00:32.675Z,2.99
2023-05-07T22:02:59.136Z,3.03
2023-05-07T22:05:25.488Z,3.17
2023-05-07T22:07:51.810Z,3.16
2023-05-07T22:10:18.132Z,3.07
2023-05-07T22:12:44.480Z,3.29
2023-05-07T22:15:10.791Z,3.08
2023-05-07T22:17:37.148Z,3.05
2023-05-07T22:20:03.480Z,3.14
2023-05-07T22:22:29.796Z,3.09
2023-05-07T22:24:56.116Z,3.28
2023-05-07T22:27:22.469Z,3.17
2023-05-07T22:29:48.775Z,3.21
2023-05-07T22:32:15.242Z,3.22
2023-05-07T22:34:41.553Z,3.35
2023-05-07T22:37:07.880Z,3.47
2023-05-07T22:39:34.269Z,3.27
2023-05-07T22:42:00.673Z,3.24
2023-05-07T22:44:26.979Z,3.45
2023-05-07T22:46:53.275Z,3.44
2023-05-07T22:49:19.601Z,3.34
2023-05-07T22:51:45.945Z,3.64
2023-05-07T22:54:12.270Z,3.78
2023-05-07T22:56:38.595Z,3.65
2023-05-07T22:59:04.912Z,3.85
2023-05-07T23:01:31.252Z,3.87
2023-05-07T23:03:57.643Z,3.73
2023-05-07T23:06:23.984Z,3.76
2023-05-07T23:08:50.289Z,3.76
2023-05-07T23:11:16.597Z,3.89
2023-05-07T23:13:42.913Z,4.02
2023-05-07T23:16:09.252Z,3.85
2023-05-07T23:18:35.563Z,4.11
2023-05-07T23:21:01.902Z,4.03
2023-05-07T23:23:28.230Z,3.79
2023-05-07T23:25:54.585Z,4.00
2023-05-07T23:28:20.925Z,3.92
2023-05-07T23:30:47.295Z,4.07
2023-05-07T23:33:13.624Z,3.81
2023-05-07T23:35:39.926Z,3.78
2023-05-07T23:38:06.249Z,3.76
2023-05-07T23:40:32.581Z,3.68
2023-05-07T23:42:58.920Z,3.96
2023-05-07T23:45:25.227Z,3.94
2023-05-07T23:47:51.658Z,4.30
2023-05-07T23:50:18.042Z,3.97
2023-05-07T23:52:44.352Z,3.97
2023-05-07T23:55:10.699Z,4.42
2023-05-07T23:57:37.030Z,4.39
